Time;durP1;ratioP1;P1;durP2;ratioP2;P2;SDS_P1;SDS_P2;PMS_P1;PMS_P2;Temp;Humidity;BMP_temperature;BMP_pressure;BME280_temperature;BME280_humidity;BME280_pressure;Samples;Min_cycle;Max_cycle;Signal;HPM_P1;HPM_P2
2022/09/21 00:01:04;;;;;;;6.18;4.70;;;;;;;;;;5041769;28;20469;-82
2022/09/21 00:03:31;;;;;;;7.72;4.82;;;;;;;;;;5041962;28;20445;-82
2022/09/21 00:06:01;;;;;;;7.93;5.13;;;;;;;;;;5043948;28;20434;-83
2022/09/21 00:08:29;;;;;;;5.55;4.43;;;;;;;;;;5044187;28;21099;-83
2022/09/21 00:10:56;;;;;;;5.60;5.00;;;;;;;;;;5043658;28;20497;-83
2022/09/21 00:13:23;;;;;;;7.57;5.10;;;;;;;;;;5041043;28;20439;-83
2022/09/21 00:15:49;;;;;;;7.60;5.43;;;;;;;;;;5045162;28;20439;-83
2022/09/21 00:18:16;;;;;;;8.23;5.35;;;;;;;;;;5042169;28;20437;-83
2022/09/21 00:20:43;;;;;;;6.85;5.38;;;;;;;;;;5042247;28;20429;-84
2022/09/21 00:23:09;;;;;;;6.90;5.35;;;;;;;;;;5044541;28;20463;-83
2022/09/21 00:25:37;;;;;;;7.25;5.22;;;;;;;;;;5042843;28;20820;-83
2022/09/21 00:28:04;;;;;;;6.70;5.63;;;;;;;;;;5043706;28;20455;-83
2022/09/21 00:30:31;;;;;;;12.63;6.07;;;;;;;;;;5042813;28;20430;-82
2022/09/21 00:32:57;;;;;;;8.65;5.50;;;;;;;;;;5045286;28;20431;-83
2022/09/21 00:35:24;;;;;;;10.75;7.00;;;;;;;;;;5043712;28;20898;-82
2022/09/21 00:37:50;;;;;;;9.57;6.32;;;;;;;;;;5043410;28;20967;-82
2022/09/21 00:40:16;;;;;;;6.70;6.10;;;;;;;;;;5045476;28;20512;-83
2022/09/21 00:42:45;;;;;;;10.10;6.82;;;;;;;;;;5043436;28;20434;-82
2022/09/21 00:45:19;;;;;;;10.38;6.85;;;;;;;;;;5040726;28;20427;-82
2022/09/21 00:47:47;;;;;;;13.63;7.72;;;;;;;;;;5040806;28;20835;-82
2022/09/21 00:50:15;;;;;;;8.83;6.87;;;;;;;;;;5042512;28;20963;-82
2022/09/21 00:52:42;;;;;;;7.60;6.80;;;;;;;;;;5043680;28;20441;-82
2022/09/21 00:55:12;;;;;;;9.57;6.88;;;;;;;;;;5043312;28;20430;-83
2022/09/21 00:57:39;;;;;;;8.80;6.40;;;;;;;;;;5040118;28;20906;-82
2022/09/21 01:00:09;;;;;;;6.47;5.88;;;;;;;;;;5043434;28;20436;-83
2022/09/21 01:02:36;;;;;;;7.17;6.13;;;;;;;;;;5042051;28;20439;-83
2022/09/21 01:05:03;;;;;;;9.70;7.00;;;;;;;;;;5041319;28;20434;-82
2022/09/21 01:07:32;;;;;;;9.98;6.20;;;;;;;;;;5043768;28;20436;-83
2022/09/21 01:10:01;;;;;;;6.68;5.97;;;;;;;;;;5057979;28;20818;-87
2022/09/21 01:12:35;;;;;;;7.35;5.78;;;;;;;;;;5042026;28;20444;-83
2022/09/21 01:15:15;;;;;;;7.20;6.00;;;;;;;;;;5042229;28;20431;-83
2022/09/21 01:17:44;;;;;;;9.15;6.57;;;;;;;;;;5044292;28;20442;-82
2022/09/21 01:20:30;;;;;;;7.10;6.10;;;;;;;;;;5041558;28;20514;-83
2022/09/21 01:23:04;;;;;;;9.10;6.72;;;;;;;;;;5044701;28;20425;-83
2022/09/21 01:25:39;;;;;;;9.75;5.78;;;;;;;;;;5040528;28;20912;-83
2022/09/21 01:28:08;;;;;;;7.25;6.22;;;;;;;;;;5043828;28;20485;-83
2022/09/21 01:30:37;;;;;;;10.55;7.00;;;;;;;;;;5042847;28;20425;-83
2022/09/21 01:33:06;;;;;;;10.55;7.40;;;;;;;;;;5041288;28;20422;-82
2022/09/21 01:35:34;;;;;;;10.77;7.18;;;;;;;;;;5041961;28;20787;-82
2022/09/21 01:38:02;;;;;;;8.88;7.45;;;;;;;;;;5041648;28;20434;-82
2022/09/21 01:40:31;;;;;;;9.57;7.70;;;;;;;;;;5040668;28;20419;-83
2022/09/21 01:42:59;;;;;;;11.90;6.88;;;;;;;;;;5043508;28;20409;-83
2022/09/21 01:45:27;;;;;;;11.20;6.85;;;;;;;;;;5043806;28;20425;-83
2022/09/21 01:47:57;;;;;;;12.30;7.47;;;;;;;;;;5046677;28;20426;-82
2022/09/21 01:50:24;;;;;;;9.77;7.28;;;;;;;;;;5045720;28;20947;-82
2022/09/21 01:52:53;;;;;;;9.63;6.93;;;;;;;;;;5045692;28;20433;-82
2022/09/21 01:55:22;;;;;;;11.00;7.72;;;;;;;;;;5045184;28;20418;-82
2022/09/21 01:57:53;;;;;;;10.00;7.43;;;;;;;;;;5048040;28;20478;-83
2022/09/21 02:00:20;;;;;;;11.20;7.40;;;;;;;;;;5044751;28;20433;-82
2022/09/21 02:02:49;;;;;;;10.85;7.47;;;;;;;;;;5044353;28;20443;-83
2022/09/21 02:05:18;;;;;;;8.90;7.82;;;;;;;;;;5045037;28;20446;-82
2022/09/21 02:07:45;;;;;;;11.48;8.15;;;;;;;;;;5045852;28;21016;-83
2022/09/21 02:10:15;;;;;;;11.50;8.02;;;;;;;;;;5047030;28;20522;-83
2022/09/21 02:12:42;;;;;;;15.32;8.27;;;;;;;;;;5045866;28;21021;-83
2022/09/21 02:15:09;;;;;;;13.82;7.80;;;;;;;;;;5047014;28;20426;-83
2022/09/21 02:17:40;;;;;;;13.18;8.07;;;;;;;;;;5046281;28;20914;-82
2022/09/21 02:20:11;;;;;;;12.30;8.00;;;;;;;;;;5045098;28;20433;-83
2022/09/21 02:22:45;;;;;;;9.73;7.70;;;;;;;;;;5045640;28;20430;-82
2022/09/21 02:25:13;;;;;;;13.43;8.55;;;;;;;;;;5046053;28;20428;-82
2022/09/21 02:27:45;;;;;;;16.60;8.65;;;;;;;;;;5044091;28;20488;-82
2022/09/21 02:30:14;;;;;;;11.10;8.27;;;;;;;;;;5042784;28;20443;-83
2022/09/21 02:32:50;;;;;;;13.90;8.60;;;;;;;;;;5047193;28;20421;-83
2022/09/21 02:35:21;;;;;;;13.40;7.75;;;;;;;;;;5044261;28;20507;-82
2022/09/21 02:37:52;;;;;;;15.37;8.63;;;;;;;;;;5046651;28;20494;-83
2022/09/21 02:40:23;;;;;;;13.35;8.55;;;;;;;;;;5046973;28;20410;-83
2022/09/21 02:42:53;;;;;;;19.08;8.48;;;;;;;;;;5045669;28;20431;-82
2022/09/21 02:45:21;;;;;;;12.87;8.07;;;;;;;;;;5043014;28;20494;-82
2022/09/21 02:47:50;;;;;;;16.45;8.45;;;;;;;;;;5045106;28;20422;-83
2022/09/21 02:50:20;;;;;;;17.55;9.38;;;;;;;;;;5048400;28;20433;-82
2022/09/21 02:52:47;;;;;;;14.50;8.95;;;;;;;;;;5045987;28;20903;-82
2022/09/21 02:55:17;;;;;;;15.85;8.40;;;;;;;;;;5045394;28;20426;-82
2022/09/21 02:57:44;;;;;;;10.70;8.05;;;;;;;;;;5041965;28;20458;-83
2022/09/21 03:00:11;;;;;;;10.80;7.80;;;;;;;;;;5045210;28;20429;-83
2022/09/21 03:02:38;;;;;;;10.77;7.75;;;;;;;;;;5045040;28;20434;-83
2022/09/21 03:05:05;;;;;;;11.20;7.30;;;;;;;;;;5044202;28;20932;-83
2022/09/21 03:07:32;;;;;;;10.47;7.43;;;;;;;;;;5045032;28;20429;-82
2022/09/21 03:09:58;;;;;;;8.40;6.93;;;;;;;;;;5043006;28;20413;-88
2022/09/21 03:12:26;;;;;;;11.25;7.38;;;;;;;;;;5043952;28;20439;-83
2022/09/21 03:14:53;;;;;;;8.10;6.80;;;;;;;;;;5045536;28;20437;-83
2022/09/21 03:17:19;;;;;;;10.50;8.07;;;;;;;;;;5045721;28;20467;-83
2022/09/21 03:19:46;;;;;;;10.55;7.10;;;;;;;;;;5048606;28;20451;-82
2022/09/21 03:22:12;;;;;;;8.80;7.30;;;;;;;;;;5043678;28;20955;-82
2022/09/21 03:24:47;;;;;;;11.98;8.20;;;;;;;;;;5044834;28;20435;-83
2022/09/21 03:27:14;;;;;;;9.93;8.18;;;;;;;;;;5044837;28;20449;-82
2022/09/21 03:29:42;;;;;;;10.32;8.13;;;;;;;;;;5046575;28;20425;-82
2022/09/21 03:32:09;;;;;;;9.93;7.72;;;;;;;;;;5044775;28;20433;-82
2022/09/21 03:34:35;;;;;;;10.60;7.70;;;;;;;;;;5045380;28;20427;-83
2022/09/21 03:37:02;;;;;;;11.38;8.32;;;;;;;;;;5044604;28;20422;-82
2022/09/21 03:39:29;;;;;;;11.50;8.63;;;;;;;;;;5045168;28;20433;-82
2022/09/21 03:41:55;;;;;;;15.05;8.60;;;;;;;;;;5043757;28;20433;-82
2022/09/21 03:44:22;;;;;;;14.15;8.68;;;;;;;;;;5047133;28;20520;-81
2022/09/21 03:46:50;;;;;;;14.75;8.65;;;;;;;;;;5044232;28;20423;-82
2022/09/21 03:49:17;;;;;;;24.55;8.90;;;;;;;;;;5041858;28;20862;-83
2022/09/21 03:51:43;;;;;;;21.75;8.90;;;;;;;;;;5043374;28;20541;-83
2022/09/21 03:54:10;;;;;;;12.57;8.32;;;;;;;;;;5039014;28;20446;-82
2022/09/21 03:56:37;;;;;;;14.90;9.32;;;;;;;;;;5040142;28;20425;-82
2022/09/21 03:59:03;;;;;;;11.52;8.40;;;;;;;;;;5043784;28;20491;-82
2022/09/21 04:01:30;;;;;;;10.02;8.48;;;;;;;;;;5041188;28;20423;-82
2022/09/21 04:03:58;;;;;;;11.95;8.60;;;;;;;;;;5045175;28;20429;-83
2022/09/21 04:06:24;;;;;;;8.77;7.60;;;;;;;;;;5040865;28;20427;-82
2022/09/21 04:08:52;;;;;;;7.68;6.80;;;;;;;;;;5044815;28;20423;-83
2022/09/21 04:11:21;;;;;;;7.78;6.70;;;;;;;;;;5043628;28;20957;-82
2022/09/21 04:13:49;;;;;;;8.80;7.50;;;;;;;;;;5043199;28;20483;-82
2022/09/21 04:16:16;;;;;;;8.80;7.30;;;;;;;;;;5041463;28;20422;-83
2022/09/21 04:18:43;;;;;;;7.93;7.03;;;;;;;;;;5047094;28;20429;-83
2022/09/21 04:21:11;;;;;;;7.63;6.82;;;;;;;;;;5041270;28;20441;-83
2022/09/21 04:23:38;;;;;;;6.93;6.30;;;;;;;;;;5044169;28;20429;-83
2022/09/21 04:26:05;;;;;;;7.70;6.90;;;;;;;;;;5045331;28;20428;-83
2022/09/21 04:28:31;;;;;;;7.30;6.60;;;;;;;;;;5044906;28;20468;-82
2022/09/21 04:30:58;;;;;;;8.23;7.38;;;;;;;;;;5042224;28;20440;-83
2022/09/21 04:33:25;;;;;;;8.00;7.20;;;;;;;;;;5043799;28;20437;-83
2022/09/21 04:35:54;;;;;;;8.00;7.20;;;;;;;;;;5041175;28;20433;-84
2022/09/21 04:38:22;;;;;;;9.00;7.30;;;;;;;;;;5043920;28;20425;-83
2022/09/21 04:40:55;;;;;;;12.43;8.23;;;;;;;;;;5041832;28;20433;-83
2022/09/21 04:43:21;;;;;;;8.60;7.30;;;;;;;;;;5041867;28;20910;-83
2022/09/21 04:45:47;;;;;;;9.68;7.57;;;;;;;;;;5041584;28;20930;-84
2022/09/21 04:48:14;;;;;;;7.85;7.05;;;;;;;;;;5041513;28;20440;-83
2022/09/21 04:50:41;;;;;;;7.22;6.53;;;;;;;;;;5041094;28;20429;-82
2022/09/21 04:53:08;;;;;;;7.60;6.80;;;;;;;;;;5042207;28;20441;-85
2022/09/21 04:55:36;;;;;;;8.85;7.30;;;;;;;;;;5041219;28;20437;-82
2022/09/21 04:58:02;;;;;;;8.70;7.25;;;;;;;;;;5043785;28;20445;-82
2022/09/21 05:00:29;;;;;;;7.40;6.38;;;;;;;;;;5040127;28;20434;-82
2022/09/21 05:02:55;;;;;;;8.05;7.25;;;;;;;;;;5041730;28;20606;-83
2022/09/21 05:05:22;;;;;;;7.70;6.40;;;;;;;;;;5037842;28;20439;-83
2022/09/21 05:07:49;;;;;;;6.90;6.30;;;;;;;;;;5043487;28;20429;-83
2022/09/21 05:10:15;;;;;;;7.20;6.50;;;;;;;;;;5044789;28;20517;-83
2022/09/21 05:12:43;;;;;;;8.93;6.47;;;;;;;;;;5041815;28;20818;-83
2022/09/21 05:15:10;;;;;;;6.93;6.22;;;;;;;;;;5043224;28;20435;-82
2022/09/21 05:17:37;;;;;;;9.02;6.50;;;;;;;;;;5064441;28;20492;-83
2022/09/21 05:20:03;;;;;;;7.78;6.85;;;;;;;;;;5063860;28;20426;-83
2022/09/21 05:22:30;;;;;;;8.88;7.03;;;;;;;;;;5042808;28;20437;-82
2022/09/21 05:24:57;;;;;;;10.13;8.10;;;;;;;;;;5047489;28;20438;-82
2022/09/21 05:27:23;;;;;;;9.43;7.60;;;;;;;;;;5047179;28;20425;-82
2022/09/21 05:29:52;;;;;;;9.63;7.20;;;;;;;;;;5046367;28;20415;-82
2022/09/21 05:32:23;;;;;;;11.32;8.45;;;;;;;;;;5044731;28;20805;-82
2022/09/21 05:34:54;;;;;;;8.88;7.50;;;;;;;;;;5049553;28;20433;-83
2022/09/21 05:37:29;;;;;;;11.23;7.88;;;;;;;;;;5043406;28;20414;-83
2022/09/21 05:39:55;;;;;;;9.32;7.45;;;;;;;;;;5046280;28;20423;-83
2022/09/21 05:42:22;;;;;;;8.50;7.70;;;;;;;;;;5047148;28;20422;-83
2022/09/21 05:44:49;;;;;;;10.73;8.50;;;;;;;;;;5045049;28;20435;-82
2022/09/21 05:47:23;;;;;;;13.40;8.68;;;;;;;;;;5042280;28;20475;-83
2022/09/21 05:49:52;;;;;;;16.50;9.13;;;;;;;;;;5048484;28;20476;-83
2022/09/21 05:52:22;;;;;;;19.05;10.15;;;;;;;;;;5043916;28;20428;-83
2022/09/21 05:54:56;;;;;;;19.50;10.30;;;;;;;;;;5045766;28;20441;-83
2022/09/21 05:57:25;;;;;;;16.55;10.48;;;;;;;;;;5043673;28;20430;-82
2022/09/21 05:59:59;;;;;;;11.82;10.15;;;;;;;;;;5046011;28;20426;-83
2022/09/21 06:02:35;;;;;;;18.30;9.65;;;;;;;;;;5045924;28;20413;-82
2022/09/21 06:05:02;;;;;;;23.73;11.30;;;;;;;;;;5044853;28;20508;-83
2022/09/21 06:07:29;;;;;;;22.10;12.00;;;;;;;;;;5046346;28;20433;-83
2022/09/21 06:09:55;;;;;;;24.02;11.10;;;;;;;;;;5046585;28;20421;-82
2022/09/21 06:12:22;;;;;;;26.73;11.10;;;;;;;;;;5045949;28;20917;-82
2022/09/21 06:14:48;;;;;;;27.27;11.30;;;;;;;;;;5046887;28;20421;-82
2022/09/21 06:17:16;;;;;;;20.33;11.60;;;;;;;;;;5046636;28;20421;-82
2022/09/21 06:19:44;;;;;;;19.92;11.90;;;;;;;;;;5042644;28;20794;-83
2022/09/21 06:22:11;;;;;;;19.98;11.85;;;;;;;;;;5047768;28;20920;-83
2022/09/21 06:24:37;;;;;;;15.13;11.32;;;;;;;;;;5043996;28;20942;-82
2022/09/21 06:27:03;;;;;;;29.08;12.70;;;;;;;;;;5046727;28;20418;-82
2022/09/21 06:29:30;;;;;;;22.10;13.68;;;;;;;;;;5046451;28;20413;-82
2022/09/21 06:31:58;;;;;;;18.00;14.00;;;;;;;;;;5043733;28;20474;-82
2022/09/21 06:34:25;;;;;;;18.85;14.25;;;;;;;;;;5042191;28;20434;-84
2022/09/21 06:36:53;;;;;;;16.15;13.15;;;;;;;;;;5043968;28;20430;-83
2022/09/21 06:39:19;;;;;;;20.33;13.63;;;;;;;;;;5043980;28;20412;-83
2022/09/21 06:41:46;;;;;;;24.98;13.27;;;;;;;;;;5045773;28;20786;-83
2022/09/21 06:44:12;;;;;;;16.63;13.50;;;;;;;;;;5044376;28;20432;-83
2022/09/21 06:46:38;;;;;;;17.17;13.82;;;;;;;;;;5043456;28;20428;-82
2022/09/21 06:49:05;;;;;;;17.90;14.00;;;;;;;;;;5043625;28;20433;-82
2022/09/21 06:51:32;;;;;;;19.97;14.40;;;;;;;;;;5045523;28;20423;-83
2022/09/21 06:54:00;;;;;;;22.75;14.00;;;;;;;;;;5044764;28;20415;-82
2022/09/21 06:56:26;;;;;;;17.38;14.68;;;;;;;;;;5042700;28;20454;-82
2022/09/21 06:58:53;;;;;;;17.85;14.07;;;;;;;;;;5043255;28;20419;-83
2022/09/21 07:01:20;;;;;;;20.48;14.90;;;;;;;;;;5043799;28;20427;-83
2022/09/21 07:03:49;;;;;;;19.35;14.48;;;;;;;;;;5046495;28;20429;-83
2022/09/21 07:06:16;;;;;;;18.50;15.52;;;;;;;;;;5044444;28;20425;-82
2022/09/21 07:08:43;;;;;;;15.50;13.83;;;;;;;;;;5045027;28;20520;-84
2022/09/21 07:11:12;;;;;;;19.30;14.93;;;;;;;;;;5043832;28;20419;-83
2022/09/21 07:13:38;;;;;;;18.55;15.55;;;;;;;;;;5042093;28;20508;-83
2022/09/21 07:16:06;;;;;;;17.45;15.55;;;;;;;;;;5044395;28;20417;-83
2022/09/21 07:18:32;;;;;;;17.23;13.90;;;;;;;;;;5045513;28;20430;-83
2022/09/21 07:20:59;;;;;;;16.50;13.20;;;;;;;;;;5046077;28;20419;-83
2022/09/21 07:23:25;;;;;;;15.55;12.80;;;;;;;;;;5043616;28;20427;-83
2022/09/21 07:25:52;;;;;;;13.23;11.52;;;;;;;;;;5044175;28;20444;-83
2022/09/21 07:28:20;;;;;;;13.55;10.68;;;;;;;;;;5042796;28;20799;-83
2022/09/21 07:30:48;;;;;;;15.07;11.10;;;;;;;;;;5043823;28;20429;-83
2022/09/21 07:33:15;;;;;;;14.50;11.13;;;;;;;;;;5042252;28;20871;-83
2022/09/21 07:35:50;;;;;;;11.20;9.93;;;;;;;;;;5041677;28;20419;-83
2022/09/21 07:38:16;;;;;;;14.10;10.45;;;;;;;;;;5043153;28;20414;-83
2022/09/21 07:40:43;;;;;;;10.18;9.10;;;;;;;;;;5044517;28;20420;-84
2022/09/21 07:43:09;;;;;;;10.77;9.02;;;;;;;;;;5043856;28;20800;-84
2022/09/21 07:45:37;;;;;;;13.70;9.43;;;;;;;;;;5042546;28;20519;-83
2022/09/21 07:48:04;;;;;;;11.10;9.05;;;;;;;;;;5041293;28;20447;-83
2022/09/21 07:50:32;;;;;;;13.65;8.20;;;;;;;;;;5044403;28;20413;-83
2022/09/21 07:52:59;;;;;;;15.82;8.60;;;;;;;;;;5041498;28;20500;-84
2022/09/21 07:55:25;;;;;;;12.60;8.88;;;;;;;;;;5042073;28;20957;-83
2022/09/21 08:00:36;;;;;;;12.15;8.30;;;;;;;;;;5044132;28;20424;-83
2022/09/21 08:03:04;;;;;;;10.52;7.28;;;;;;;;;;5043925;28;20444;-84
2022/09/21 08:05:31;;;;;;;10.80;8.20;;;;;;;;;;5042675;28;20419;-83
2022/09/21 08:07:57;;;;;;;12.60;8.30;;;;;;;;;;5041877;28;20937;-83
2022/09/21 08:10:27;;;;;;;11.80;8.70;;;;;;;;;;5042906;28;21020;-83
2022/09/21 08:12:53;;;;;;;9.70;7.38;;;;;;;;;;5041919;28;20439;-83
2022/09/21 08:15:20;;;;;;;11.80;6.80;;;;;;;;;;5042950;28;20452;-85
2022/09/21 08:17:47;;;;;;;7.38;6.55;;;;;;;;;;5044859;28;20457;-84
2022/09/21 08:20:15;;;;;;;8.77;6.57;;;;;;;;;;5040283;28;20441;-82
2022/09/21 08:22:43;;;;;;;8.37;6.10;;;;;;;;;;5045958;28;20502;-83
2022/09/21 08:25:10;;;;;;;8.07;6.28;;;;;;;;;;5042948;28;20783;-82
2022/09/21 08:27:37;;;;;;;11.18;6.20;;;;;;;;;;5042600;28;20486;-84
2022/09/21 08:30:04;;;;;;;10.97;5.60;;;;;;;;;;5042504;28;20796;-84
2022/09/21 08:32:31;;;;;;;7.10;5.50;;;;;;;;;;5044341;28;20423;-82
2022/09/21 08:34:57;;;;;;;13.18;5.88;;;;;;;;;;5042354;28;20434;-84
2022/09/21 08:37:26;;;;;;;8.57;5.53;;;;;;;;;;5057940;28;20409;-82
2022/09/21 08:39:52;;;;;;;12.27;5.60;;;;;;;;;;5044519;28;20423;-81
2022/09/21 08:42:32;;;;;;;10.97;5.27;;;;;;;;;;5062996;28;20418;-82
2022/09/21 08:45:00;;;;;;;7.22;5.00;;;;;;;;;;5062196;28;20500;-82
2022/09/21 08:47:30;;;;;;;12.93;4.50;;;;;;;;;;5040646;28;20433;-80
2022/09/21 08:49:58;;;;;;;8.10;3.70;;;;;;;;;;5043747;28;20434;-83
2022/09/21 08:52:26;;;;;;;7.88;3.08;;;;;;;;;;5064011;28;20421;-82
2022/09/21 08:54:55;;;;;;;6.65;3.30;;;;;;;;;;5063148;28;20939;-82
2022/09/21 08:57:22;;;;;;;7.95;2.90;;;;;;;;;;5062824;28;20415;-81
2022/09/21 08:59:49;;;;;;;8.85;3.42;;;;;;;;;;5065704;28;20962;-84
2022/09/21 09:02:26;;;;;;;5.57;2.47;;;;;;;;;;5041264;28;20503;-82
2022/09/21 09:04:56;;;;;;;8.00;2.30;;;;;;;;;;5038979;28;20447;-81
2022/09/21 09:07:31;;;;;;;10.70;3.10;;;;;;;;;;5042408;28;20421;-81
2022/09/21 09:10:03;;;;;;;6.78;2.40;;;;;;;;;;5043618;28;20954;-82
2022/09/21 09:12:36;;;;;;;7.93;2.63;;;;;;;;;;5042129;28;20501;-82
2022/09/21 09:15:09;;;;;;;6.60;2.65;;;;;;;;;;5041433;28;20449;-81
2022/09/21 09:17:44;;;;;;;7.17;2.90;;;;;;;;;;5043140;28;20419;-82
2022/09/21 09:20:14;;;;;;;8.40;2.30;;;;;;;;;;5042803;28;20435;-83
2022/09/21 09:22:45;;;;;;;7.70;2.33;;;;;;;;;;5045575;28;20433;-82
2022/09/21 09:25:16;;;;;;;5.83;2.80;;;;;;;;;;5042323;28;20471;-84
2022/09/21 09:27:44;;;;;;;6.35;2.30;;;;;;;;;;5041352;28;20431;-83
2022/09/21 09:30:15;;;;;;;7.57;2.42;;;;;;;;;;5042564;28;20815;-84
2022/09/21 09:32:47;;;;;;;5.47;2.40;;;;;;;;;;5041282;28;20789;-83
2022/09/21 09:35:16;;;;;;;9.45;2.80;;;;;;;;;;5040995;28;20436;-82
2022/09/21 09:37:45;;;;;;;5.85;2.58;;;;;;;;;;5040697;28;20424;-83
2022/09/21 09:40:13;;;;;;;6.32;2.30;;;;;;;;;;5041388;28;20427;-82
2022/09/21 09:42:45;;;;;;;7.22;2.47;;;;;;;;;;5040914;28;20429;-84
2022/09/21 09:45:20;;;;;;;8.40;2.88;;;;;;;;;;5041910;28;20431;-83
2022/09/21 09:47:51;;;;;;;4.93;1.80;;;;;;;;;;5038916;28;20421;-84
2022/09/21 09:50:20;;;;;;;6.22;2.10;;;;;;;;;;5039986;28;22409;-81
2022/09/21 09:52:48;;;;;;;10.63;2.37;;;;;;;;;;5041803;28;20453;-82
2022/09/21 09:55:18;;;;;;;9.23;2.33;;;;;;;;;;5043241;28;20419;-83
2022/09/21 09:57:46;;;;;;;6.80;2.33;;;;;;;;;;5039120;28;20427;-82
2022/09/21 10:00:14;;;;;;;6.35;2.10;;;;;;;;;;5039038;28;20440;-81
2022/09/21 10:02:46;;;;;;;7.18;2.40;;;;;;;;;;5039099;28;20438;-84
2022/09/21 10:05:18;;;;;;;8.77;3.00;;;;;;;;;;5041666;28;20421;-83
2022/09/21 10:07:45;;;;;;;10.20;3.03;;;;;;;;;;5042841;28;20441;-81
2022/09/21 10:10:36;;;;;;;7.00;2.70;;;;;;;;;;5044403;28;20441;-83
2022/09/21 10:13:07;;;;;;;9.48;3.65;;;;;;;;;;5024706;28;20445;-81
2022/09/21 10:15:33;;;;;;;9.90;2.97;;;;;;;;;;5043889;28;20429;-84
2022/09/21 10:18:01;;;;;;;5.68;1.90;;;;;;;;;;5043139;28;20441;-84
2022/09/21 10:20:29;;;;;;;6.65;2.50;;;;;;;;;;5044856;28;20422;-83
2022/09/21 10:22:56;;;;;;;8.65;2.60;;;;;;;;;;5042480;28;20442;-81
2022/09/21 10:25:23;;;;;;;8.00;2.30;;;;;;;;;;5041220;28;20416;-82
2022/09/21 10:27:50;;;;;;;8.17;2.47;;;;;;;;;;5044271;28;20560;-82
2022/09/21 10:30:32;;;;;;;4.78;2.70;;;;;;;;;;5042889;28;20430;-82
2022/09/21 10:33:00;;;;;;;6.68;2.50;;;;;;;;;;5043588;28;20437;-81
2022/09/21 10:35:27;;;;;;;7.47;2.50;;;;;;;;;;5045129;28;20413;-82
2022/09/21 10:38:10;;;;;;;7.03;2.00;;;;;;;;;;5043564;28;20425;-82
2022/09/21 10:40:37;;;;;;;9.07;3.00;;;;;;;;;;5044775;28;20458;-81
2022/09/21 10:43:03;;;;;;;7.43;2.13;;;;;;;;;;5046045;28;20431;-82
2022/09/21 10:45:31;;;;;;;8.88;2.10;;;;;;;;;;5045271;28;20415;-83
2022/09/21 10:47:58;;;;;;;7.22;2.00;;;;;;;;;;5044139;28;20434;-82
2022/09/21 10:50:28;;;;;;;7.13;2.20;;;;;;;;;;5043830;28;20517;-81
2022/09/21 10:52:57;;;;;;;6.00;2.08;;;;;;;;;;5044505;28;20429;-82
2022/09/21 10:55:25;;;;;;;6.57;2.17;;;;;;;;;;5043993;28;20410;-81
2022/09/21 10:57:52;;;;;;;2.95;1.75;;;;;;;;;;5043539;28;20428;-81
2022/09/21 11:00:35;;;;;;;6.93;1.95;;;;;;;;;;5043272;28;20413;-82
2022/09/21 11:03:03;;;;;;;8.03;2.27;;;;;;;;;;5040769;28;20433;-82
2022/09/21 11:05:32;;;;;;;5.90;1.50;;;;;;;;;;5043374;28;20423;-81
2022/09/21 11:08:02;;;;;;;4.43;1.85;;;;;;;;;;5041826;28;20437;-82
2022/09/21 11:10:32;;;;;;;5.40;1.80;;;;;;;;;;5041360;28;20419;-81
2022/09/21 11:13:13;;;;;;;5.07;1.50;;;;;;;;;;5041151;28;20419;-81
2022/09/21 11:15:44;;;;;;;4.70;2.08;;;;;;;;;;5041194;28;20420;-81
2022/09/21 11:18:14;;;;;;;6.27;1.93;;;;;;;;;;5042593;28;20453;-81
2022/09/21 11:20:46;;;;;;;5.53;2.00;;;;;;;;;;5040603;28;20448;-82
2022/09/21 11:23:17;;;;;;;6.40;1.83;;;;;;;;;;5042125;28;20435;-81
2022/09/21 11:25:47;;;;;;;7.05;1.73;;;;;;;;;;5044143;28;20816;-81
2022/09/21 11:28:16;;;;;;;5.07;1.83;;;;;;;;;;5042010;28;20421;-81
2022/09/21 11:30:57;;;;;;;3.67;1.50;;;;;;;;;;5039943;28;20418;-81
2022/09/21 11:33:31;;;;;;;5.93;1.65;;;;;;;;;;5040385;28;20429;-82
2022/09/21 11:36:02;;;;;;;5.93;1.67;;;;;;;;;;5043094;28;20418;-82
2022/09/21 11:38:37;;;;;;;7.00;2.00;;;;;;;;;;5042817;28;20428;-84
2022/09/21 11:41:10;;;;;;;6.65;1.83;;;;;;;;;;5044266;28;20423;-82
2022/09/21 11:43:48;;;;;;;5.55;1.75;;;;;;;;;;5042657;28;20441;-83
2022/09/21 11:46:21;;;;;;;5.10;1.92;;;;;;;;;;5039794;28;20427;-83
2022/09/21 11:48:55;;;;;;;6.60;1.77;;;;;;;;;;5043663;28;20428;-82
2022/09/21 11:51:36;;;;;;;4.75;1.40;;;;;;;;;;5040125;28;21100;-80
2022/09/21 11:54:14;;;;;;;6.43;1.50;;;;;;;;;;5041944;28;20443;-82
2022/09/21 11:56:44;;;;;;;6.23;1.70;;;;;;;;;;5041938;28;20817;-82
2022/09/21 11:59:20;;;;;;;3.90;1.60;;;;;;;;;;5041815;28;20998;-82
2022/09/21 12:01:54;;;;;;;4.32;1.50;;;;;;;;;;5038553;28;20427;-81
2022/09/21 12:04:30;;;;;;;4.90;1.30;;;;;;;;;;5042168;28;20432;-83
2022/09/21 12:07:02;;;;;;;6.70;1.60;;;;;;;;;;5041398;28;20945;-82
2022/09/21 12:09:38;;;;;;;3.08;1.50;;;;;;;;;;5039427;28;20430;-81
2022/09/21 12:12:09;;;;;;;5.45;1.45;;;;;;;;;;5044421;28;20421;-82
2022/09/21 12:14:38;;;;;;;6.90;1.98;;;;;;;;;;5043397;28;20437;-82
2022/09/21 12:17:08;;;;;;;4.50;1.40;;;;;;;;;;5042961;28;20425;-83
2022/09/21 12:19:40;;;;;;;4.00;1.33;;;;;;;;;;5038494;28;20787;-82
2022/09/21 12:22:10;;;;;;;4.55;1.30;;;;;;;;;;5039828;28;20430;-81
2022/09/21 12:24:41;;;;;;;5.60;1.27;;;;;;;;;;5041483;28;20413;-83
2022/09/21 12:27:11;;;;;;;6.80;1.60;;;;;;;;;;5039875;28;20493;-81
2022/09/21 12:29:42;;;;;;;2.50;1.30;;;;;;;;;;5039812;28;20421;-82
2022/09/21 12:32:14;;;;;;;4.78;1.65;;;;;;;;;;5039117;28;20962;-81
2022/09/21 12:34:42;;;;;;;6.40;1.58;;;;;;;;;;5040289;28;20906;-82
2022/09/21 12:37:12;;;;;;;5.70;1.40;;;;;;;;;;5039519;28;20973;-82
2022/09/21 12:39:40;;;;;;;7.20;1.50;;;;;;;;;;5042678;28;20763;-83
2022/09/21 12:42:13;;;;;;;2.80;1.17;;;;;;;;;;5040392;28;20435;-80
2022/09/21 12:44:51;;;;;;;4.65;1.70;;;;;;;;;;5037879;28;20510;-84
2022/09/21 12:47:22;;;;;;;5.10;1.45;;;;;;;;;;5040118;28;20446;-83
2022/09/21 12:49:50;;;;;;;4.28;1.50;;;;;;;;;;5041536;28;20472;-83
2022/09/21 12:52:19;;;;;;;3.50;1.20;;;;;;;;;;5043341;28;20429;-80
2022/09/21 12:54:48;;;;;;;3.17;1.00;;;;;;;;;;5042757;28;20899;-80
2022/09/21 12:57:21;;;;;;;3.23;1.20;;;;;;;;;;5041844;28;20433;-80
2022/09/21 12:59:50;;;;;;;4.30;1.15;;;;;;;;;;5040316;28;20427;-81
2022/09/21 13:02:20;;;;;;;3.58;1.25;;;;;;;;;;5040795;28;20441;-81
2022/09/21 13:04:52;;;;;;;4.80;1.60;;;;;;;;;;5042648;28;20530;-80
2022/09/21 13:07:39;;;;;;;3.22;1.10;;;;;;;;;;5040310;28;20456;-83
2022/09/21 13:10:15;;;;;;;3.37;1.03;;;;;;;;;;5038747;28;20432;-83
2022/09/21 13:12:43;;;;;;;5.88;1.80;;;;;;;;;;5037682;28;20427;-82
2022/09/21 13:15:13;;;;;;;2.43;1.10;;;;;;;;;;5041065;28;20458;-80
2022/09/21 13:17:40;;;;;;;5.55;1.20;;;;;;;;;;5038892;28;20426;-82
2022/09/21 13:20:15;;;;;;;5.70;1.33;;;;;;;;;;5041466;28;20797;-82
2022/09/21 13:22:42;;;;;;;6.35;1.33;;;;;;;;;;5037366;28;20440;-82
2022/09/21 13:25:19;;;;;;;4.53;1.10;;;;;;;;;;5040040;28;20436;-81
2022/09/21 13:28:03;;;;;;;2.33;1.02;;;;;;;;;;5039423;28;20429;-80
2022/09/21 13:30:39;;;;;;;3.88;1.23;;;;;;;;;;5038928;28;20483;-82
2022/09/21 13:33:22;;;;;;;5.00;1.52;;;;;;;;;;5037170;28;20442;-81
2022/09/21 13:35:51;;;;;;;2.75;1.23;;;;;;;;;;5038036;28;20440;-82
2022/09/21 13:38:24;;;;;;;4.95;1.33;;;;;;;;;;5040753;28;20429;-82
2022/09/21 13:40:57;;;;;;;5.60;1.30;;;;;;;;;;5037405;28;20418;-82
2022/09/21 13:43:54;;;;;;;3.63;1.08;;;;;;;;;;5040536;28;20427;-82
2022/09/21 13:46:40;;;;;;;4.28;1.20;;;;;;;;;;5044982;28;20425;-82
2022/09/21 13:49:15;;;;;;;4.97;1.15;;;;;;;;;;5044568;28;20429;-82
2022/09/21 13:51:50;;;;;;;3.10;1.10;;;;;;;;;;5045781;28;20425;-81
2022/09/21 13:54:18;;;;;;;4.63;1.20;;;;;;;;;;5044132;28;20524;-81
2022/09/21 13:56:46;;;;;;;5.38;1.35;;;;;;;;;;5042984;28;20425;-81
2022/09/21 13:59:19;;;;;;;4.40;1.40;;;;;;;;;;5044110;28;21321;-81
2022/09/21 14:01:46;;;;;;;4.95;1.25;;;;;;;;;;5044068;28;20413;-82
2022/09/21 14:04:18;;;;;;;4.60;1.20;;;;;;;;;;5043311;28;20910;-81
2022/09/21 14:06:47;;;;;;;4.47;1.60;;;;;;;;;;5044550;28;20430;-83
2022/09/21 14:09:21;;;;;;;7.57;1.50;;;;;;;;;;5042840;28;20458;-81
2022/09/21 14:11:58;;;;;;;4.00;1.10;;;;;;;;;;5042181;28;20872;-83
2022/09/21 14:14:30;;;;;;;4.85;1.40;;;;;;;;;;5043781;28;20905;-82
2022/09/21 14:16:58;;;;;;;4.30;1.55;;;;;;;;;;5041861;28;20521;-82
2022/09/21 14:19:43;;;;;;;3.40;1.10;;;;;;;;;;5044423;28;20426;-83
2022/09/21 14:22:29;;;;;;;4.15;1.48;;;;;;;;;;5043616;28;20440;-80
2022/09/21 14:25:10;;;;;;;5.90;1.50;;;;;;;;;;5044930;28;20426;-81
2022/09/21 14:27:41;;;;;;;3.85;1.30;;;;;;;;;;5042777;28;20463;-81
2022/09/21 14:30:16;;;;;;;4.68;1.20;;;;;;;;;;5042030;28;20428;-83
2022/09/21 14:32:46;;;;;;;5.50;1.65;;;;;;;;;;5044913;28;20854;-83
2022/09/21 14:35:15;;;;;;;2.93;1.13;;;;;;;;;;5043455;28;20433;-82
2022/09/21 14:37:45;;;;;;;6.82;1.50;;;;;;;;;;5041795;28;20503;-83
2022/09/21 14:40:17;;;;;;;4.88;1.50;;;;;;;;;;5042915;28;20427;-83
2022/09/21 14:42:46;;;;;;;3.20;1.20;;;;;;;;;;5043830;28;20438;-83
2022/09/21 14:45:16;;;;;;;4.03;1.10;;;;;;;;;;5040730;28;20957;-84
2022/09/21 14:47:57;;;;;;;4.45;1.35;;;;;;;;;;5043587;28;20437;-81
2022/09/21 14:50:29;;;;;;;4.32;1.25;;;;;;;;;;5038795;28;20520;-82
2022/09/21 14:53:08;;;;;;;4.63;1.35;;;;;;;;;;5041646;28;20471;-82